createdAt,value
2019-01-23T00:00:03.421Z,-4.7
2019-01-23T00:15:02.449Z,-4.6
2019-01-23T00:30:02.900Z,-4.6
2019-01-23T00:45:03.198Z,-4.6
2019-01-23T01:00:02.499Z,-4.6
2019-01-23T01:15:03.141Z,-4.6
2019-01-23T01:30:02.764Z,-4.6
2019-01-23T01:45:03.136Z,-4.5
2019-01-23T02:00:03.434Z,-4.4
2019-01-23T02:15:02.737Z,-4.5
2019-01-23T02:30:03.060Z,-4.5
2019-01-23T02:45:03.253Z,-4.5
2019-01-23T03:00:02.582Z,-4.5
2019-01-23T03:15:02.879Z,-4.5
2019-01-23T03:30:03.287Z,-4.4
2019-01-23T03:45:02.886Z,-4.4
2019-01-23T04:00:03.230Z,-4.4
2019-01-23T04:15:02.604Z,-4.4
2019-01-23T04:30:03.017Z,-4.4
2019-01-23T04:45:03.237Z,-4.4
2019-01-23T05:00:02.651Z,-4.3
2019-01-23T05:15:02.855Z,-4.3
2019-01-23T05:30:03.308Z,-4.4
2019-01-23T05:45:02.564Z,-4.6
2019-01-23T06:00:02.976Z,-4.5
2019-01-23T06:15:03.137Z,-4.5
2019-01-23T06:30:10.035Z,-4.5
2019-01-23T06:45:03.030Z,-4.6
2019-01-23T07:00:03.359Z,-4.7
2019-01-23T07:15:02.907Z,-4.8
2019-01-23T07:30:03.085Z,-4.7
2019-01-23T07:45:02.477Z,-4.6
2019-01-23T08:00:02.875Z,-4.6
2019-01-23T08:15:03.125Z,-4.6
2019-01-23T08:30:02.820Z,-4.2
2019-01-23T08:45:03.119Z,-4.1
2019-01-23T09:00:03.374Z,-3.9
2019-01-23T09:15:02.695Z,-3.8
2019-01-23T09:30:03.354Z,-3.5
2019-01-23T09:50:48.351Z,-3.2
2019-01-23T10:00:04.691Z,-3.1
2019-01-23T10:15:03.315Z,-2.9
2019-01-23T10:30:02.853Z,-2.7
2019-01-23T10:45:03.072Z,-2.2
2019-01-23T11:00:03.333Z,-2.5
2019-01-23T11:15:02.659Z,-2.5
2019-01-23T11:30:03.004Z,-2.8
2019-01-23T11:45:03.218Z,-2.4
2019-01-23T12:00:03.011Z,-2.6
2019-01-23T12:15:03.573Z,-2.6
2019-01-23T12:30:03.407Z,-2.8
2019-01-23T12:45:02.827Z,-2.9
2019-01-23T13:00:05.238Z,-2.4
2019-01-23T13:15:03.294Z,-2.6
2019-01-23T13:30:02.886Z,-2.8
2019-01-23T13:45:03.201Z,-2.7
2019-01-23T14:00:02.724Z,-2.9
2019-01-23T14:15:32.852Z,-2.8
2019-01-23T14:30:03.419Z,-2.6
2019-01-23T14:45:02.931Z,-2.7
2019-01-23T15:00:03.181Z,-2.9
2019-01-23T15:15:02.470Z,-2.9
2019-01-23T15:30:02.934Z,-2.9
2019-01-23T15:45:03.367Z,-3.1
2019-01-23T16:00:03.078Z,-3.1
2019-01-23T16:15:14.111Z,-3.1
2019-01-23T16:30:03.286Z,-3.1
2019-01-23T16:45:03.246Z,-3.3
2019-01-23T17:00:02.565Z,-3.4
2019-01-23T17:15:02.770Z,-3.4
2019-01-23T17:30:03.175Z,-3.4
2019-01-23T17:45:02.692Z,-3.5
2019-01-23T18:00:03.071Z,-3.4
2019-01-23T18:15:08.751Z,-3.4
2019-01-23T18:30:03.289Z,-3.5
2019-01-23T18:45:03.314Z,-3.5
2019-01-23T19:00:02.798Z,-3.5
2019-01-23T19:15:03.267Z,-3.5
2019-01-23T19:31:57.885Z,-3.5
2019-01-23T19:45:03.365Z,-3.5
2019-01-23T20:00:02.894Z,-3.5
2019-01-23T20:15:03.287Z,-3.5
2019-01-23T20:30:02.658Z,-3.4
2019-01-23T20:45:02.967Z,-3.4
2019-01-23T21:00:03.242Z,-3.5
2019-01-23T21:15:02.736Z,-3.4
2019-01-23T21:30:02.968Z,-3.5
2019-01-23T21:45:03.298Z,-3.6
2019-01-23T22:00:02.576Z,-3.7
2019-01-23T22:15:03.129Z,-3.7
2019-01-23T22:30:03.225Z,-3.6
2019-01-23T22:45:02.517Z,-3.8
2019-01-23T23:00:02.805Z,-3.7
2019-01-23T23:15:03.194Z,-3.8
2019-01-23T23:30:02.758Z,-3.8
2019-01-23T23:45:03.003Z,-3.8
